sensor_id;sensor_type;location;lat;lon;timestamp;P1;durP1;ratioP1;P2;durP2;ratioP2
22935;SDS011;11633;42.716;23.312;2023-03-19T00:02:07;9.38;;;5.57;;
22935;SDS011;11633;42.716;23.312;2023-03-19T00:04:33;12.95;;;5.65;;
22935;SDS011;11633;42.716;23.312;2023-03-19T00:06:58;12.70;;;6.55;;
22935;SDS011;11633;42.716;23.312;2023-03-19T00:09:23;12.63;;;6.57;;
22935;SDS011;11633;42.716;23.312;2023-03-19T00:11:48;11.68;;;7.20;;
22935;SDS011;11633;42.716;23.312;2023-03-19T00:14:14;12.18;;;7.15;;
22935;SDS011;11633;42.716;23.312;2023-03-19T00:16:40;13.38;;;6.97;;
22935;SDS011;11633;42.716;23.312;2023-03-19T00:19:05;14.50;;;7.13;;
22935;SDS011;11633;42.716;23.312;2023-03-19T00:21:30;13.60;;;7.00;;
22935;SDS011;11633;42.716;23.312;2023-03-19T00:23:56;11.18;;;7.03;;
22935;SDS011;11633;42.716;23.312;2023-03-19T00:26:25;13.32;;;6.82;;
22935;SDS011;11633;42.716;23.312;2023-03-19T00:28:51;11.25;;;6.00;;
22935;SDS011;11633;42.716;23.312;2023-03-19T00:31:16;14.50;;;5.78;;
22935;SDS011;11633;42.716;23.312;2023-03-19T00:33:42;9.10;;;6.47;;
22935;SDS011;11633;42.716;23.312;2023-03-19T00:36:07;10.25;;;6.50;;
22935;SDS011;11633;42.716;23.312;2023-03-19T00:38:33;10.55;;;5.97;;
22935;SDS011;11633;42.716;23.312;2023-03-19T00:40:59;9.23;;;5.50;;
22935;SDS011;11633;42.716;23.312;2023-03-19T00:43:25;11.05;;;5.85;;
22935;SDS011;11633;42.716;23.312;2023-03-19T00:45:51;13.30;;;6.00;;
22935;SDS011;11633;42.716;23.312;2023-03-19T00:48:16;11.48;;;6.35;;
22935;SDS011;11633;42.716;23.312;2023-03-19T00:50:41;10.15;;;6.15;;
22935;SDS011;11633;42.716;23.312;2023-03-19T00:53:07;10.60;;;5.82;;
22935;SDS011;11633;42.716;23.312;2023-03-19T00:55:32;10.43;;;6.32;;
22935;SDS011;11633;42.716;23.312;2023-03-19T00:57:57;8.77;;;5.22;;
22935;SDS011;11633;42.716;23.312;2023-03-19T01:00:23;11.82;;;6.55;;
22935;SDS011;11633;42.716;23.312;2023-03-19T01:02:48;13.60;;;7.57;;
22935;SDS011;11633;42.716;23.312;2023-03-19T01:05:13;17.08;;;7.50;;
22935;SDS011;11633;42.716;23.312;2023-03-19T01:07:38;16.35;;;8.35;;
22935;SDS011;11633;42.716;23.312;2023-03-19T01:10:04;17.88;;;8.38;;
22935;SDS011;11633;42.716;23.312;2023-03-19T01:12:30;12.93;;;7.43;;
22935;SDS011;11633;42.716;23.312;2023-03-19T01:14:55;15.35;;;8.80;;
22935;SDS011;11633;42.716;23.312;2023-03-19T01:17:20;17.88;;;10.13;;
22935;SDS011;11633;42.716;23.312;2023-03-19T01:19:45;19.13;;;10.75;;
22935;SDS011;11633;42.716;23.312;2023-03-19T01:22:11;21.05;;;12.35;;
22935;SDS011;11633;42.716;23.312;2023-03-19T01:24:38;26.38;;;14.90;;
22935;SDS011;11633;42.716;23.312;2023-03-19T01:27:03;27.65;;;17.00;;
22935;SDS011;11633;42.716;23.312;2023-03-19T01:29:28;32.88;;;16.38;;
22935;SDS011;11633;42.716;23.312;2023-03-19T01:31:53;39.58;;;17.30;;
22935;SDS011;11633;42.716;23.312;2023-03-19T01:34:19;28.50;;;17.33;;
22935;SDS011;11633;42.716;23.312;2023-03-19T01:36:45;29.38;;;14.45;;
22935;SDS011;11633;42.716;23.312;2023-03-19T01:39:11;25.98;;;13.93;;
22935;SDS011;11633;42.716;23.312;2023-03-19T01:41:36;25.08;;;14.27;;
22935;SDS011;11633;42.716;23.312;2023-03-19T01:44:01;24.38;;;14.02;;
22935;SDS011;11633;42.716;23.312;2023-03-19T01:46:28;20.90;;;12.43;;
22935;SDS011;11633;42.716;23.312;2023-03-19T01:48:56;20.80;;;11.93;;
22935;SDS011;11633;42.716;23.312;2023-03-19T01:51:24;18.48;;;9.73;;
22935;SDS011;11633;42.716;23.312;2023-03-19T01:53:51;22.42;;;11.27;;
22935;SDS011;11633;42.716;23.312;2023-03-19T01:56:19;18.05;;;10.10;;
22935;SDS011;11633;42.716;23.312;2023-03-19T01:58:45;14.27;;;8.55;;
22935;SDS011;11633;42.716;23.312;2023-03-19T02:01:12;15.18;;;8.10;;
22935;SDS011;11633;42.716;23.312;2023-03-19T02:03:38;18.15;;;8.82;;
22935;SDS011;11633;42.716;23.312;2023-03-19T02:06:04;17.85;;;10.38;;
22935;SDS011;11633;42.716;23.312;2023-03-19T02:08:29;17.23;;;9.82;;
22935;SDS011;11633;42.716;23.312;2023-03-19T02:10:55;20.55;;;9.68;;
22935;SDS011;11633;42.716;23.312;2023-03-19T02:13:24;13.07;;;8.38;;
22935;SDS011;11633;42.716;23.312;2023-03-19T02:15:49;17.80;;;9.43;;
22935;SDS011;11633;42.716;23.312;2023-03-19T02:18:15;18.50;;;9.15;;
22935;SDS011;11633;42.716;23.312;2023-03-19T02:20:43;13.02;;;6.93;;
22935;SDS011;11633;42.716;23.312;2023-03-19T02:23:17;12.13;;;6.80;;
22935;SDS011;11633;42.716;23.312;2023-03-19T02:28:10;13.13;;;6.15;;
22935;SDS011;11633;42.716;23.312;2023-03-19T02:30:36;8.70;;;6.30;;
22935;SDS011;11633;42.716;23.312;2023-03-19T02:33:01;9.68;;;5.13;;
22935;SDS011;11633;42.716;23.312;2023-03-19T02:35:27;10.80;;;5.45;;
22935;SDS011;11633;42.716;23.312;2023-03-19T02:37:54;12.88;;;6.32;;
22935;SDS011;11633;42.716;23.312;2023-03-19T02:40:23;12.20;;;7.05;;
22935;SDS011;11633;42.716;23.312;2023-03-19T02:42:50;8.27;;;6.03;;
22935;SDS011;11633;42.716;23.312;2023-03-19T02:45:15;12.07;;;6.45;;
22935;SDS011;11633;42.716;23.312;2023-03-19T02:47:41;12.40;;;6.80;;
22935;SDS011;11633;42.716;23.312;2023-03-19T02:50:06;11.30;;;6.28;;
22935;SDS011;11633;42.716;23.312;2023-03-19T02:52:32;13.10;;;6.50;;
22935;SDS011;11633;42.716;23.312;2023-03-19T02:54:57;10.40;;;6.30;;
22935;SDS011;11633;42.716;23.312;2023-03-19T02:57:22;12.80;;;6.53;;
22935;SDS011;11633;42.716;23.312;2023-03-19T02:59:48;11.32;;;6.47;;
22935;SDS011;11633;42.716;23.312;2023-03-19T03:02:13;13.68;;;6.90;;
22935;SDS011;11633;42.716;23.312;2023-03-19T03:04:39;15.95;;;6.78;;
22935;SDS011;11633;42.716;23.312;2023-03-19T03:07:05;14.85;;;7.68;;
22935;SDS011;11633;42.716;23.312;2023-03-19T03:09:31;14.15;;;8.90;;
22935;SDS011;11633;42.716;23.312;2023-03-19T03:11:56;19.95;;;9.15;;
22935;SDS011;11633;42.716;23.312;2023-03-19T03:14:21;15.18;;;8.18;;
22935;SDS011;11633;42.716;23.312;2023-03-19T03:16:47;13.77;;;7.90;;
22935;SDS011;11633;42.716;23.312;2023-03-19T03:19:12;13.02;;;7.53;;
22935;SDS011;11633;42.716;23.312;2023-03-19T03:21:38;20.63;;;7.32;;
22935;SDS011;11633;42.716;23.312;2023-03-19T03:24:04;18.25;;;8.57;;
22935;SDS011;11633;42.716;23.312;2023-03-19T03:26:29;13.25;;;7.05;;
22935;SDS011;11633;42.716;23.312;2023-03-19T03:28:55;12.30;;;6.80;;
22935;SDS011;11633;42.716;23.312;2023-03-19T03:31:20;14.18;;;6.90;;
22935;SDS011;11633;42.716;23.312;2023-03-19T03:33:46;13.45;;;7.00;;
22935;SDS011;11633;42.716;23.312;2023-03-19T03:36:11;10.88;;;6.10;;
22935;SDS011;11633;42.716;23.312;2023-03-19T03:38:37;12.35;;;6.28;;
22935;SDS011;11633;42.716;23.312;2023-03-19T03:41:02;11.63;;;5.68;;
22935;SDS011;11633;42.716;23.312;2023-03-19T03:43:28;11.27;;;6.53;;
22935;SDS011;11633;42.716;23.312;2023-03-19T03:45:54;11.05;;;5.90;;
22935;SDS011;11633;42.716;23.312;2023-03-19T03:48:19;12.88;;;5.80;;
22935;SDS011;11633;42.716;23.312;2023-03-19T03:50:45;11.35;;;6.32;;
22935;SDS011;11633;42.716;23.312;2023-03-19T03:53:11;11.60;;;6.38;;
22935;SDS011;11633;42.716;23.312;2023-03-19T03:55:37;10.43;;;5.45;;
22935;SDS011;11633;42.716;23.312;2023-03-19T03:58:02;10.77;;;5.32;;
22935;SDS011;11633;42.716;23.312;2023-03-19T04:00:27;10.98;;;5.85;;
22935;SDS011;11633;42.716;23.312;2023-03-19T04:02:53;11.23;;;5.95;;
22935;SDS011;11633;42.716;23.312;2023-03-19T04:05:18;9.93;;;5.45;;
22935;SDS011;11633;42.716;23.312;2023-03-19T04:07:43;11.80;;;5.85;;
22935;SDS011;11633;42.716;23.312;2023-03-19T04:10:12;16.65;;;5.85;;
22935;SDS011;11633;42.716;23.312;2023-03-19T04:12:38;12.40;;;5.53;;
22935;SDS011;11633;42.716;23.312;2023-03-19T04:15:04;14.13;;;6.75;;
22935;SDS011;11633;42.716;23.312;2023-03-19T04:17:29;9.70;;;5.90;;
22935;SDS011;11633;42.716;23.312;2023-03-19T04:19:55;13.10;;;6.60;;
22935;SDS011;11633;42.716;23.312;2023-03-19T04:22:20;12.40;;;6.93;;
22935;SDS011;11633;42.716;23.312;2023-03-19T04:24:45;13.48;;;6.88;;
22935;SDS011;11633;42.716;23.312;2023-03-19T04:27:11;17.20;;;8.93;;
22935;SDS011;11633;42.716;23.312;2023-03-19T04:29:36;17.27;;;9.20;;
22935;SDS011;11633;42.716;23.312;2023-03-19T04:32:01;13.02;;;6.85;;
22935;SDS011;11633;42.716;23.312;2023-03-19T04:34:26;10.52;;;6.13;;
22935;SDS011;11633;42.716;23.312;2023-03-19T04:36:52;8.93;;;5.25;;
22935;SDS011;11633;42.716;23.312;2023-03-19T04:39:17;9.13;;;4.72;;
22935;SDS011;11633;42.716;23.312;2023-03-19T04:41:42;7.55;;;5.22;;
22935;SDS011;11633;42.716;23.312;2023-03-19T04:44:08;10.38;;;5.80;;
22935;SDS011;11633;42.716;23.312;2023-03-19T04:46:33;10.18;;;5.50;;
22935;SDS011;11633;42.716;23.312;2023-03-19T04:48:58;7.85;;;5.05;;
22935;SDS011;11633;42.716;23.312;2023-03-19T04:51:24;13.63;;;6.15;;
22935;SDS011;11633;42.716;23.312;2023-03-19T04:53:50;9.38;;;5.85;;
22935;SDS011;11633;42.716;23.312;2023-03-19T04:56:15;12.98;;;7.43;;
22935;SDS011;11633;42.716;23.312;2023-03-19T04:58:41;9.80;;;6.43;;
22935;SDS011;11633;42.716;23.312;2023-03-19T05:01:07;11.63;;;6.95;;
22935;SDS011;11633;42.716;23.312;2023-03-19T05:03:32;12.80;;;6.40;;
22935;SDS011;11633;42.716;23.312;2023-03-19T05:05:57;15.65;;;7.40;;
22935;SDS011;11633;42.716;23.312;2023-03-19T05:08:23;9.30;;;6.53;;
22935;SDS011;11633;42.716;23.312;2023-03-19T05:10:48;20.67;;;9.25;;
22935;SDS011;11633;42.716;23.312;2023-03-19T05:13:13;21.13;;;11.18;;
22935;SDS011;11633;42.716;23.312;2023-03-19T05:15:42;20.20;;;11.93;;
22935;SDS011;11633;42.716;23.312;2023-03-19T05:18:07;25.15;;;12.10;;
22935;SDS011;11633;42.716;23.312;2023-03-19T05:20:32;24.20;;;11.93;;
22935;SDS011;11633;42.716;23.312;2023-03-19T05:22:58;15.73;;;7.70;;
22935;SDS011;11633;42.716;23.312;2023-03-19T05:25:24;12.35;;;6.70;;
22935;SDS011;11633;42.716;23.312;2023-03-19T05:27:49;13.85;;;7.10;;
22935;SDS011;11633;42.716;23.312;2023-03-19T05:30:14;15.23;;;7.53;;
22935;SDS011;11633;42.716;23.312;2023-03-19T05:32:42;12.88;;;7.15;;
22935;SDS011;11633;42.716;23.312;2023-03-19T05:35:08;12.52;;;7.03;;
22935;SDS011;11633;42.716;23.312;2023-03-19T05:37:33;12.68;;;7.53;;
22935;SDS011;11633;42.716;23.312;2023-03-19T05:39:58;12.63;;;8.20;;
22935;SDS011;11633;42.716;23.312;2023-03-19T05:42:24;15.45;;;8.35;;
22935;SDS011;11633;42.716;23.312;2023-03-19T05:44:49;12.50;;;7.55;;
22935;SDS011;11633;42.716;23.312;2023-03-19T05:47:14;13.57;;;7.47;;
22935;SDS011;11633;42.716;23.312;2023-03-19T05:49:40;13.80;;;8.43;;
22935;SDS011;11633;42.716;23.312;2023-03-19T05:52:05;14.73;;;8.80;;
22935;SDS011;11633;42.716;23.312;2023-03-19T05:54:31;15.73;;;9.43;;
22935;SDS011;11633;42.716;23.312;2023-03-19T05:56:56;17.73;;;11.90;;
22935;SDS011;11633;42.716;23.312;2023-03-19T05:59:22;23.27;;;14.60;;
22935;SDS011;11633;42.716;23.312;2023-03-19T06:01:47;24.42;;;13.88;;
22935;SDS011;11633;42.716;23.312;2023-03-19T06:04:12;20.92;;;12.23;;
22935;SDS011;11633;42.716;23.312;2023-03-19T06:06:37;20.83;;;11.57;;
22935;SDS011;11633;42.716;23.312;2023-03-19T06:09:03;19.23;;;12.52;;
22935;SDS011;11633;42.716;23.312;2023-03-19T06:11:28;16.30;;;10.07;;
22935;SDS011;11633;42.716;23.312;2023-03-19T06:13:53;19.90;;;12.05;;
22935;SDS011;11633;42.716;23.312;2023-03-19T06:16:19;15.52;;;10.52;;
22935;SDS011;11633;42.716;23.312;2023-03-19T06:18:44;16.67;;;10.40;;
22935;SDS011;11633;42.716;23.312;2023-03-19T06:21:11;16.00;;;9.50;;
22935;SDS011;11633;42.716;23.312;2023-03-19T06:23:36;17.67;;;10.95;;
22935;SDS011;11633;42.716;23.312;2023-03-19T06:26:01;14.50;;;9.25;;
22935;SDS011;11633;42.716;23.312;2023-03-19T06:28:26;13.68;;;9.05;;
22935;SDS011;11633;42.716;23.312;2023-03-19T06:30:55;15.35;;;8.70;;
22935;SDS011;11633;42.716;23.312;2023-03-19T06:33:20;15.48;;;8.95;;
22935;SDS011;11633;42.716;23.312;2023-03-19T06:35:46;13.60;;;8.90;;
22935;SDS011;11633;42.716;23.312;2023-03-19T06:38:12;12.10;;;8.13;;
22935;SDS011;11633;42.716;23.312;2023-03-19T06:40:37;10.15;;;7.05;;
22935;SDS011;11633;42.716;23.312;2023-03-19T06:43:02;12.88;;;7.10;;
22935;SDS011;11633;42.716;23.312;2023-03-19T06:45:27;12.48;;;7.03;;
22935;SDS011;11633;42.716;23.312;2023-03-19T06:47:53;8.73;;;6.32;;
22935;SDS011;11633;42.716;23.312;2023-03-19T06:50:18;10.10;;;6.55;;
22935;SDS011;11633;42.716;23.312;2023-03-19T06:52:43;11.32;;;6.10;;
22935;SDS011;11633;42.716;23.312;2023-03-19T06:55:09;10.10;;;6.10;;
22935;SDS011;11633;42.716;23.312;2023-03-19T06:57:35;12.18;;;6.35;;
22935;SDS011;11633;42.716;23.312;2023-03-19T07:00:01;13.50;;;7.13;;
22935;SDS011;11633;42.716;23.312;2023-03-19T07:02:27;11.43;;;5.95;;
22935;SDS011;11633;42.716;23.312;2023-03-19T07:04:52;13.43;;;6.80;;
22935;SDS011;11633;42.716;23.312;2023-03-19T07:07:17;9.45;;;6.72;;
22935;SDS011;11633;42.716;23.312;2023-03-19T07:09:43;10.70;;;7.05;;
22935;SDS011;11633;42.716;23.312;2023-03-19T07:12:08;8.80;;;5.97;;
22935;SDS011;11633;42.716;23.312;2023-03-19T07:14:33;8.50;;;6.28;;
22935;SDS011;11633;42.716;23.312;2023-03-19T07:16:59;12.27;;;6.80;;
22935;SDS011;11633;42.716;23.312;2023-03-19T07:19:24;12.00;;;7.05;;
22935;SDS011;11633;42.716;23.312;2023-03-19T07:21:50;10.15;;;6.55;;
22935;SDS011;11633;42.716;23.312;2023-03-19T07:24:15;10.13;;;6.05;;
22935;SDS011;11633;42.716;23.312;2023-03-19T07:26:40;9.65;;;5.80;;
22935;SDS011;11633;42.716;23.312;2023-03-19T07:29:06;12.13;;;6.25;;
22935;SDS011;11633;42.716;23.312;2023-03-19T07:31:31;10.98;;;6.38;;
22935;SDS011;11633;42.716;23.312;2023-03-19T07:33:57;8.32;;;5.68;;
22935;SDS011;11633;42.716;23.312;2023-03-19T07:36:22;10.13;;;6.15;;
22935;SDS011;11633;42.716;23.312;2023-03-19T07:38:47;7.78;;;5.07;;
22935;SDS011;11633;42.716;23.312;2023-03-19T07:41:12;9.32;;;5.57;;
22935;SDS011;11633;42.716;23.312;2023-03-19T07:43:38;10.57;;;5.55;;
22935;SDS011;11633;42.716;23.312;2023-03-19T07:46:03;7.43;;;5.55;;
22935;SDS011;11633;42.716;23.312;2023-03-19T07:48:29;10.70;;;6.15;;
22935;SDS011;11633;42.716;23.312;2023-03-19T07:50:54;11.18;;;6.28;;
22935;SDS011;11633;42.716;23.312;2023-03-19T07:53:19;8.02;;;6.22;;
22935;SDS011;11633;42.716;23.312;2023-03-19T07:55:46;12.20;;;6.85;;
22935;SDS011;11633;42.716;23.312;2023-03-19T07:58:11;9.90;;;6.25;;
22935;SDS011;11633;42.716;23.312;2023-03-19T08:00:37;11.32;;;7.20;;
22935;SDS011;11633;42.716;23.312;2023-03-19T08:03:02;12.45;;;7.10;;
22935;SDS011;11633;42.716;23.312;2023-03-19T08:05:27;12.32;;;6.65;;
22935;SDS011;11633;42.716;23.312;2023-03-19T08:07:52;13.23;;;6.63;;
22935;SDS011;11633;42.716;23.312;2023-03-19T08:10:18;9.98;;;6.43;;
22935;SDS011;11633;42.716;23.312;2023-03-19T08:12:43;10.67;;;6.60;;
22935;SDS011;11633;42.716;23.312;2023-03-19T08:15:09;8.43;;;5.63;;
22935;SDS011;11633;42.716;23.312;2023-03-19T08:17:35;12.27;;;7.38;;
22935;SDS011;11633;42.716;23.312;2023-03-19T08:20:06;9.77;;;6.60;;
22935;SDS011;11633;42.716;23.312;2023-03-19T08:22:32;11.05;;;6.35;;
22935;SDS011;11633;42.716;23.312;2023-03-19T08:24:57;9.40;;;6.32;;
22935;SDS011;11633;42.716;23.312;2023-03-19T08:27:23;11.35;;;6.35;;
22935;SDS011;11633;42.716;23.312;2023-03-19T08:29:48;9.40;;;5.97;;
22935;SDS011;11633;42.716;23.312;2023-03-19T08:32:13;9.32;;;6.35;;
22935;SDS011;11633;42.716;23.312;2023-03-19T08:34:38;11.10;;;6.55;;
22935;SDS011;11633;42.716;23.312;2023-03-19T08:37:04;10.23;;;6.28;;
22935;SDS011;11633;42.716;23.312;2023-03-19T08:39:32;11.70;;;6.25;;
22935;SDS011;11633;42.716;23.312;2023-03-19T08:41:58;8.43;;;5.75;;
22935;SDS011;11633;42.716;23.312;2023-03-19T08:44:23;11.75;;;6.03;;
22935;SDS011;11633;42.716;23.312;2023-03-19T08:46:48;8.07;;;6.15;;
22935;SDS011;11633;42.716;23.312;2023-03-19T08:49:14;7.45;;;6.15;;
22935;SDS011;11633;42.716;23.312;2023-03-19T08:51:39;8.10;;;6.00;;
22935;SDS011;11633;42.716;23.312;2023-03-19T08:54:04;11.40;;;7.00;;
22935;SDS011;11633;42.716;23.312;2023-03-19T08:56:30;9.27;;;6.88;;
22935;SDS011;11633;42.716;23.312;2023-03-19T08:58:56;10.70;;;6.55;;
22935;SDS011;11633;42.716;23.312;2023-03-19T09:01:21;9.82;;;6.13;;
22935;SDS011;11633;42.716;23.312;2023-03-19T09:03:46;7.80;;;5.30;;
22935;SDS011;11633;42.716;23.312;2023-03-19T09:06:12;8.07;;;6.00;;
22935;SDS011;11633;42.716;23.312;2023-03-19T09:08:38;9.05;;;6.05;;
22935;SDS011;11633;42.716;23.312;2023-03-19T09:11:04;7.88;;;6.05;;
22935;SDS011;11633;42.716;23.312;2023-03-19T09:13:29;8.27;;;5.93;;
22935;SDS011;11633;42.716;23.312;2023-03-19T09:15:55;10.45;;;6.45;;
22935;SDS011;11633;42.716;23.312;2023-03-19T09:18:20;9.18;;;5.75;;
22935;SDS011;11633;42.716;23.312;2023-03-19T09:20:48;8.68;;;5.88;;
22935;SDS011;11633;42.716;23.312;2023-03-19T09:23:13;11.77;;;6.55;;
22935;SDS011;11633;42.716;23.312;2023-03-19T09:25:38;7.07;;;5.10;;
22935;SDS011;11633;42.716;23.312;2023-03-19T09:28:04;6.88;;;5.18;;
22935;SDS011;11633;42.716;23.312;2023-03-19T09:30:29;9.13;;;5.32;;
22935;SDS011;11633;42.716;23.312;2023-03-19T09:32:55;6.60;;;5.38;;
22935;SDS011;11633;42.716;23.312;2023-03-19T09:35:20;6.78;;;5.10;;
22935;SDS011;11633;42.716;23.312;2023-03-19T09:37:46;9.02;;;5.00;;
22935;SDS011;11633;42.716;23.312;2023-03-19T09:40:21;7.28;;;4.65;;
22935;SDS011;11633;42.716;23.312;2023-03-19T09:42:57;7.03;;;5.03;;
22935;SDS011;11633;42.716;23.312;2023-03-19T09:45:24;7.38;;;5.00;;
22935;SDS011;11633;42.716;23.312;2023-03-19T09:47:53;8.13;;;4.88;;
22935;SDS011;11633;42.716;23.312;2023-03-19T09:50:21;6.75;;;4.60;;
22935;SDS011;11633;42.716;23.312;2023-03-19T09:57:40;7.13;;;4.65;;
22935;SDS011;11633;42.716;23.312;2023-03-19T10:00:39;5.95;;;3.83;;
22935;SDS011;11633;42.716;23.312;2023-03-19T10:08:33;6.70;;;4.10;;
22935;SDS011;11633;42.716;23.312;2023-03-19T10:15:54;6.18;;;3.92;;
22935;SDS011;11633;42.716;23.312;2023-03-19T10:18:20;5.53;;;3.38;;
22935;SDS011;11633;42.716;23.312;2023-03-19T10:20:54;3.72;;;3.33;;
22935;SDS011;11633;42.716;23.312;2023-03-19T10:25:53;4.93;;;3.17;;
22935;SDS011;11633;42.716;23.312;2023-03-19T10:28:19;4.18;;;2.95;;
22935;SDS011;11633;42.716;23.312;2023-03-19T10:30:48;4.18;;;3.15;;
22935;SDS011;11633;42.716;23.312;2023-03-19T10:33:20;4.15;;;2.22;;
22935;SDS011;11633;42.716;23.312;2023-03-19T10:35:46;4.20;;;2.70;;
22935;SDS011;11633;42.716;23.312;2023-03-19T10:38:20;4.88;;;2.72;;
22935;SDS011;11633;42.716;23.312;2023-03-19T10:43:21;7.63;;;3.95;;
22935;SDS011;11633;42.716;23.312;2023-03-19T10:45:47;4.35;;;3.30;;
22935;SDS011;11633;42.716;23.312;2023-03-19T10:48:16;5.45;;;3.28;;
22935;SDS011;11633;42.716;23.312;2023-03-19T10:50:48;4.95;;;3.38;;
22935;SDS011;11633;42.716;23.312;2023-03-19T10:55:45;5.18;;;2.80;;
22935;SDS011;11633;42.716;23.312;2023-03-19T10:58:18;6.00;;;3.63;;
22935;SDS011;11633;42.716;23.312;2023-03-19T11:00:47;5.22;;;3.67;;
22935;SDS011;11633;42.716;23.312;2023-03-19T11:03:29;4.97;;;3.75;;
22935;SDS011;11633;42.716;23.312;2023-03-19T11:08:41;3.88;;;3.33;;
22935;SDS011;11633;42.716;23.312;2023-03-19T11:11:21;3.85;;;3.40;;
22935;SDS011;11633;42.716;23.312;2023-03-19T11:13:46;3.55;;;2.75;;
22935;SDS011;11633;42.716;23.312;2023-03-19T11:16:11;6.22;;;3.47;;
22935;SDS011;11633;42.716;23.312;2023-03-19T11:18:37;4.20;;;3.13;;
22935;SDS011;11633;42.716;23.312;2023-03-19T11:21:07;4.82;;;3.13;;
22935;SDS011;11633;42.716;23.312;2023-03-19T11:23:37;7.38;;;3.42;;
22935;SDS011;11633;42.716;23.312;2023-03-19T11:26:03;5.90;;;3.85;;
22935;SDS011;11633;42.716;23.312;2023-03-19T11:28:29;5.68;;;3.65;;
22935;SDS011;11633;42.716;23.312;2023-03-19T11:31:32;7.90;;;3.78;;
22935;SDS011;11633;42.716;23.312;2023-03-19T11:34:01;4.50;;;3.30;;
22935;SDS011;11633;42.716;23.312;2023-03-19T11:36:40;4.78;;;3.75;;
22935;SDS011;11633;42.716;23.312;2023-03-19T11:44:56;4.75;;;3.47;;
22935;SDS011;11633;42.716;23.312;2023-03-19T11:47:17;6.88;;;3.88;;
22935;SDS011;11633;42.716;23.312;2023-03-19T11:49:51;7.55;;;4.57;;
22935;SDS011;11633;42.716;23.312;2023-03-19T11:57:11;8.00;;;4.15;;
22935;SDS011;11633;42.716;23.312;2023-03-19T12:24:46;4.60;;;2.50;;
22935;SDS011;11633;42.716;23.312;2023-03-19T12:35:16;5.70;;;3.40;;
22935;SDS011;11633;42.716;23.312;2023-03-19T12:42:53;6.70;;;3.33;;
22935;SDS011;11633;42.716;23.312;2023-03-19T12:45:34;3.42;;;2.78;;
22935;SDS011;11633;42.716;23.312;2023-03-19T12:48:09;5.78;;;2.78;;
22935;SDS011;11633;42.716;23.312;2023-03-19T12:50:36;4.00;;;2.90;;
22935;SDS011;11633;42.716;23.312;2023-03-19T12:53:04;3.67;;;2.70;;
22935;SDS011;11633;42.716;23.312;2023-03-19T13:01:11;5.72;;;2.20;;
22935;SDS011;11633;42.716;23.312;2023-03-19T13:05:55;3.42;;;2.15;;
22935;SDS011;11633;42.716;23.312;2023-03-19T13:08:24;5.60;;;2.53;;
22935;SDS011;11633;42.716;23.312;2023-03-19T13:10:51;2.70;;;2.08;;
22935;SDS011;11633;42.716;23.312;2023-03-19T13:15:51;3.85;;;2.05;;
22935;SDS011;11633;42.716;23.312;2023-03-19T13:18:31;3.58;;;2.28;;
22935;SDS011;11633;42.716;23.312;2023-03-19T13:23:36;2.45;;;1.70;;
22935;SDS011;11633;42.716;23.312;2023-03-19T13:26:02;2.80;;;2.10;;
22935;SDS011;11633;42.716;23.312;2023-03-19T13:28:31;2.70;;;1.80;;
22935;SDS011;11633;42.716;23.312;2023-03-19T13:31:07;5.18;;;2.55;;
22935;SDS011;11633;42.716;23.312;2023-03-19T13:33:35;7.85;;;2.10;;
22935;SDS011;11633;42.716;23.312;2023-03-19T13:36:06;4.50;;;2.30;;
22935;SDS011;11633;42.716;23.312;2023-03-19T13:38:39;6.22;;;2.00;;
22935;SDS011;11633;42.716;23.312;2023-03-19T13:41:22;3.22;;;2.00;;
22935;SDS011;11633;42.716;23.312;2023-03-19T13:43:51;4.82;;;2.20;;
22935;SDS011;11633;42.716;23.312;2023-03-19T13:53:38;3.67;;;2.60;;
22935;SDS011;11633;42.716;23.312;2023-03-19T13:56:13;3.35;;;2.05;;
22935;SDS011;11633;42.716;23.312;2023-03-19T13:58:47;4.00;;;1.83;;
22935;SDS011;11633;42.716;23.312;2023-03-19T14:08:53;3.33;;;1.55;;
22935;SDS011;11633;42.716;23.312;2023-03-19T14:11:23;2.92;;;2.05;;
22935;SDS011;11633;42.716;23.312;2023-03-19T14:13:48;4.88;;;2.15;;
22935;SDS011;11633;42.716;23.312;2023-03-19T14:16:16;4.97;;;1.90;;
22935;SDS011;11633;42.716;23.312;2023-03-19T14:18:42;7.47;;;2.30;;
22935;SDS011;11633;42.716;23.312;2023-03-19T14:21:09;8.02;;;3.20;;
22935;SDS011;11633;42.716;23.312;2023-03-19T14:23:36;2.80;;;2.10;;
22935;SDS011;11633;42.716;23.312;2023-03-19T14:31:04;4.07;;;2.20;;
22935;SDS011;11633;42.716;23.312;2023-03-19T14:33:41;2.97;;;2.13;;
22935;SDS011;11633;42.716;23.312;2023-03-19T14:36:07;3.70;;;2.72;;
22935;SDS011;11633;42.716;23.312;2023-03-19T14:38:37;3.60;;;2.20;;
22935;SDS011;11633;42.716;23.312;2023-03-19T14:41:04;5.32;;;2.47;;
22935;SDS011;11633;42.716;23.312;2023-03-19T14:49:05;4.82;;;2.30;;
22935;SDS011;11633;42.716;23.312;2023-03-19T14:57:04;3.42;;;2.20;;
22935;SDS011;11633;42.716;23.312;2023-03-19T14:59:35;4.97;;;2.40;;
22935;SDS011;11633;42.716;23.312;2023-03-19T15:02:00;3.60;;;2.30;;
22935;SDS011;11633;42.716;23.312;2023-03-19T15:04:26;3.03;;;2.00;;
22935;SDS011;11633;42.716;23.312;2023-03-19T15:06:52;3.13;;;2.40;;
22935;SDS011;11633;42.716;23.312;2023-03-19T15:19:07;3.08;;;2.10;;
22935;SDS011;11633;42.716;23.312;2023-03-19T15:21:36;4.07;;;2.08;;
22935;SDS011;11633;42.716;23.312;2023-03-19T15:24:02;3.75;;;2.22;;
22935;SDS011;11633;42.716;23.312;2023-03-19T15:26:29;5.30;;;2.50;;
22935;SDS011;11633;42.716;23.312;2023-03-19T15:28:55;2.58;;;1.80;;
22935;SDS011;11633;42.716;23.312;2023-03-19T15:31:22;6.18;;;2.28;;
22935;SDS011;11633;42.716;23.312;2023-03-19T15:33:47;3.70;;;2.30;;
22935;SDS011;11633;42.716;23.312;2023-03-19T15:38:43;4.05;;;2.08;;
22935;SDS011;11633;42.716;23.312;2023-03-19T15:41:09;4.88;;;2.40;;
22935;SDS011;11633;42.716;23.312;2023-03-19T15:43:35;5.00;;;2.13;;
22935;SDS011;11633;42.716;23.312;2023-03-19T15:46:03;4.60;;;2.20;;
22935;SDS011;11633;42.716;23.312;2023-03-19T15:51:02;3.70;;;2.42;;
22935;SDS011;11633;42.716;23.312;2023-03-19T15:53:31;4.15;;;2.05;;
22935;SDS011;11633;42.716;23.312;2023-03-19T15:55:58;4.95;;;1.98;;
22935;SDS011;11633;42.716;23.312;2023-03-19T15:58:25;3.78;;;2.00;;
22935;SDS011;11633;42.716;23.312;2023-03-19T16:00:52;4.28;;;2.40;;
22935;SDS011;11633;42.716;23.312;2023-03-19T16:03:18;3.80;;;2.63;;
22935;SDS011;11633;42.716;23.312;2023-03-19T16:05:44;4.13;;;3.25;;
22935;SDS011;11633;42.716;23.312;2023-03-19T16:08:22;3.60;;;1.90;;
22935;SDS011;11633;42.716;23.312;2023-03-19T16:10:48;3.83;;;2.25;;
22935;SDS011;11633;42.716;23.312;2023-03-19T16:15:58;4.03;;;3.17;;
22935;SDS011;11633;42.716;23.312;2023-03-19T16:18:24;7.57;;;5.00;;
22935;SDS011;11633;42.716;23.312;2023-03-19T16:23:27;14.82;;;7.82;;
22935;SDS011;11633;42.716;23.312;2023-03-19T16:25:53;5.53;;;3.55;;
22935;SDS011;11633;42.716;23.312;2023-03-19T16:28:19;4.18;;;2.53;;
22935;SDS011;11633;42.716;23.312;2023-03-19T16:30:48;4.35;;;2.95;;
22935;SDS011;11633;42.716;23.312;2023-03-19T16:33:14;8.18;;;4.00;;
22935;SDS011;11633;42.716;23.312;2023-03-19T16:35:39;6.70;;;2.97;;
22935;SDS011;11633;42.716;23.312;2023-03-19T16:38:06;7.80;;;4.28;;
22935;SDS011;11633;42.716;23.312;2023-03-19T16:40:43;6.95;;;3.55;;
22935;SDS011;11633;42.716;23.312;2023-03-19T16:43:13;6.28;;;3.38;;
22935;SDS011;11633;42.716;23.312;2023-03-19T16:45:40;8.23;;;3.65;;